Каракульское

Карта отелей и гостиниц, располагающихся рядом с аэропортом Каракульское :

Каракульское Челябинская область 54° 4' 23.196" N, 62° 25' 18.516" E
Код аэродрома ИКАО: 
ZE54
Код аэродрома RU: 
ЗЕ54
Координаты: 
N54.07311° E062.42181°
Превышение над уровнем моря : 
180
Основная полоса: 
07/25
Курс магнитный: 
070,2/250,2
Длина основной ВПП: 
600
Ширина основной ВПП: 
100
Покрытие основной ВПП: 
Нетвёрдое (грунт)
Тип: 
Аэродром
Освещение ВПП: 
Нет
Класс аэродрома: 
Статус: 
Недействующий
Принадлежность: 
ГА
Сайт: 
E-mail аэродрома: 
Страна: 
Россия
Регион: 
Челябинская область
Город: 
Дополнительная информация: 
По данным Сборника №2 АНИ по МВЛ Уральского управления ГА (изд. 1981)

Найти трансфер

С помощью этой формы Вы можете найти трансфер из аэропорта Каракульское в город, аэропорт или вокзал:

Карта места

Javascript is required to view this map.

Погода в аэропортах:

Авиационная погода в Курске

Погода METAR: 
UUOK 141730Z 28004MPS 3100 -DZ BR OVC005 16/15 Q1000 R30/190055 NOSIG RMK QBB150 QFE731/0975
Время наблюдения: 
2020-07-14T17:30:00Z
Температура C: 
16.0
Точка росы: 
15.0
Направление ветра: 
280
Скорость ветра: 
8
Метеорологическая видимость: 
1.93
Явления погоды: 
-DZ BR
Условия полета: 
IFR
Аэропорт подробнее: 

Авиационная погода в Калуге (Грабцево)

Регион: 
Погода METAR: 
UUBC 141730Z 36005MPS 330V030 9000 -SHRA BKN009 OVC020CB 16/15 Q0998 R31/290250 TEMPO 01011G16MPS 1200 SHRA BKN005CB RMK QFE732/0976
Время наблюдения: 
2020-07-14T17:30:00Z
Температура C: 
16.0
Точка росы: 
15.0
Направление ветра: 
360
Скорость ветра: 
10
Метеорологическая видимость: 
5.59
Явления погоды: 
-SHRA
Условия полета: 
IFR

Авиационная погода в Челябинске

Регион: 
Погода METAR: 
USCC 141730Z 11003MPS 5000 FU FEW040CB 26/14 Q1017 R09/000060 NOSIG RMK QFE742
Время наблюдения: 
2020-07-14T17:30:00Z
Температура C: 
26.0
Точка росы: 
14.0
Направление ветра: 
110
Скорость ветра: 
6
Метеорологическая видимость: 
3.11
Явления погоды: 
FU
Условия полета: 
MVFR
Аэропорт подробнее: 

Авиационная погода в Ульяновске

Регион: 
Погода METAR: 
UWLW 141800Z 11002MPS 8000 TS BKN040CB 29/16 Q1008 R02/CLRD60 NOSIG RMK QFE749
Время наблюдения: 
2020-07-14T18:00:00Z
Температура C: 
29.0
Точка росы: 
16.0
Направление ветра: 
110
Скорость ветра: 
4
Метеорологическая видимость: 
4.97
Явления погоды: 
TS
Условия полета: 
MVFR